sensor_id;sensor_type;location;lat;lon;timestamp;P1;durP1;ratioP1;P2;durP2;ratioP2
16689;SDS011;8458;52.220;9.884;2024-02-26T00:01:32;1.00;;;1.00;;
16689;SDS011;8458;52.220;9.884;2024-02-26T00:03:59;1.33;;;1.23;;
16689;SDS011;8458;52.220;9.884;2024-02-26T00:06:27;1.47;;;1.20;;
16689;SDS011;8458;52.220;9.884;2024-02-26T00:08:53;1.20;;;1.10;;
16689;SDS011;8458;52.220;9.884;2024-02-26T00:11:20;2.13;;;1.30;;
16689;SDS011;8458;52.220;9.884;2024-02-26T00:13:46;1.13;;;1.03;;
16689;SDS011;8458;52.220;9.884;2024-02-26T00:16:13;1.50;;;1.40;;
16689;SDS011;8458;52.220;9.884;2024-02-26T00:18:41;1.60;;;1.50;;
16689;SDS011;8458;52.220;9.884;2024-02-26T00:21:07;1.83;;;1.23;;
16689;SDS011;8458;52.220;9.884;2024-02-26T00:23:33;1.67;;;1.50;;
16689;SDS011;8458;52.220;9.884;2024-02-26T00:26:00;1.50;;;1.40;;
16689;SDS011;8458;52.220;9.884;2024-02-26T00:28:26;1.50;;;1.40;;
16689;SDS011;8458;52.220;9.884;2024-02-26T00:30:54;1.60;;;1.50;;
16689;SDS011;8458;52.220;9.884;2024-02-26T00:33:21;1.50;;;1.40;;
16689;SDS011;8458;52.220;9.884;2024-02-26T00:35:49;1.77;;;1.67;;
16689;SDS011;8458;52.220;9.884;2024-02-26T00:38:16;1.50;;;1.40;;
16689;SDS011;8458;52.220;9.884;2024-02-26T00:40:42;1.30;;;1.20;;
16689;SDS011;8458;52.220;9.884;2024-02-26T00:43:09;1.40;;;1.30;;
16689;SDS011;8458;52.220;9.884;2024-02-26T00:45:35;1.50;;;1.40;;
16689;SDS011;8458;52.220;9.884;2024-02-26T00:48:02;1.30;;;1.30;;
16689;SDS011;8458;52.220;9.884;2024-02-26T00:50:30;1.47;;;1.37;;
16689;SDS011;8458;52.220;9.884;2024-02-26T00:52:58;1.70;;;1.60;;
16689;SDS011;8458;52.220;9.884;2024-02-26T00:55:24;2.07;;;1.97;;
16689;SDS011;8458;52.220;9.884;2024-02-26T00:57:50;1.60;;;1.50;;
16689;SDS011;8458;52.220;9.884;2024-02-26T01:00:17;1.70;;;1.60;;
16689;SDS011;8458;52.220;9.884;2024-02-26T01:02:44;1.87;;;1.77;;
16689;SDS011;8458;52.220;9.884;2024-02-26T01:05:12;1.50;;;1.40;;
16689;SDS011;8458;52.220;9.884;2024-02-26T01:07:39;1.77;;;1.67;;
16689;SDS011;8458;52.220;9.884;2024-02-26T01:10:07;1.70;;;1.60;;
16689;SDS011;8458;52.220;9.884;2024-02-26T01:12:34;1.73;;;1.63;;
16689;SDS011;8458;52.220;9.884;2024-02-26T01:15:01;1.73;;;1.63;;
16689;SDS011;8458;52.220;9.884;2024-02-26T01:17:28;2.43;;;2.23;;
16689;SDS011;8458;52.220;9.884;2024-02-26T01:19:55;1.83;;;1.73;;
16689;SDS011;8458;52.220;9.884;2024-02-26T01:22:21;2.27;;;2.07;;
16689;SDS011;8458;52.220;9.884;2024-02-26T01:24:48;2.10;;;1.70;;
16689;SDS011;8458;52.220;9.884;2024-02-26T01:27:15;1.70;;;1.60;;
16689;SDS011;8458;52.220;9.884;2024-02-26T01:29:42;1.60;;;1.50;;
16689;SDS011;8458;52.220;9.884;2024-02-26T01:32:09;1.60;;;1.50;;
16689;SDS011;8458;52.220;9.884;2024-02-26T01:34:35;1.90;;;1.70;;
16689;SDS011;8458;52.220;9.884;2024-02-26T01:37:02;2.50;;;1.60;;
16689;SDS011;8458;52.220;9.884;2024-02-26T01:39:29;2.30;;;1.90;;
16689;SDS011;8458;52.220;9.884;2024-02-26T01:41:56;1.80;;;1.70;;
16689;SDS011;8458;52.220;9.884;2024-02-26T01:44:24;2.20;;;2.10;;
16689;SDS011;8458;52.220;9.884;2024-02-26T01:46:52;1.90;;;1.80;;
16689;SDS011;8458;52.220;9.884;2024-02-26T01:49:19;1.97;;;1.77;;
16689;SDS011;8458;52.220;9.884;2024-02-26T01:51:45;1.80;;;1.70;;
16689;SDS011;8458;52.220;9.884;2024-02-26T01:54:12;1.97;;;1.87;;
16689;SDS011;8458;52.220;9.884;2024-02-26T01:56:39;2.17;;;2.00;;
16689;SDS011;8458;52.220;9.884;2024-02-26T01:59:06;1.90;;;1.80;;
16689;SDS011;8458;52.220;9.884;2024-02-26T02:01:36;2.37;;;2.17;;
16689;SDS011;8458;52.220;9.884;2024-02-26T02:04:03;2.10;;;1.70;;
16689;SDS011;8458;52.220;9.884;2024-02-26T02:06:30;1.80;;;1.70;;
16689;SDS011;8458;52.220;9.884;2024-02-26T02:08:56;2.03;;;1.90;;
16689;SDS011;8458;52.220;9.884;2024-02-26T02:11:23;1.83;;;1.70;;
16689;SDS011;8458;52.220;9.884;2024-02-26T02:13:50;2.50;;;1.90;;
16689;SDS011;8458;52.220;9.884;2024-02-26T02:16:16;2.00;;;1.80;;
16689;SDS011;8458;52.220;9.884;2024-02-26T02:18:44;1.93;;;1.83;;
16689;SDS011;8458;52.220;9.884;2024-02-26T02:21:12;2.17;;;1.97;;
16689;SDS011;8458;52.220;9.884;2024-02-26T02:23:38;2.43;;;1.90;;
16689;SDS011;8458;52.220;9.884;2024-02-26T02:26:05;2.03;;;1.83;;
16689;SDS011;8458;52.220;9.884;2024-02-26T02:28:32;1.77;;;1.63;;
16689;SDS011;8458;52.220;9.884;2024-02-26T02:30:58;1.90;;;1.80;;
16689;SDS011;8458;52.220;9.884;2024-02-26T02:33:26;1.90;;;1.80;;
16689;SDS011;8458;52.220;9.884;2024-02-26T02:35:52;2.13;;;2.03;;
16689;SDS011;8458;52.220;9.884;2024-02-26T02:38:21;1.77;;;1.67;;
16689;SDS011;8458;52.220;9.884;2024-02-26T02:40:48;2.50;;;2.30;;
16689;SDS011;8458;52.220;9.884;2024-02-26T02:43:15;3.07;;;2.30;;
16689;SDS011;8458;52.220;9.884;2024-02-26T02:45:41;2.93;;;2.63;;
16689;SDS011;8458;52.220;9.884;2024-02-26T02:48:08;2.97;;;2.20;;
16689;SDS011;8458;52.220;9.884;2024-02-26T02:50:34;2.33;;;2.20;;
16689;SDS011;8458;52.220;9.884;2024-02-26T02:53:01;2.43;;;2.23;;
16689;SDS011;8458;52.220;9.884;2024-02-26T02:55:28;3.63;;;2.10;;
16689;SDS011;8458;52.220;9.884;2024-02-26T02:57:55;2.60;;;2.40;;
16689;SDS011;8458;52.220;9.884;2024-02-26T03:00:21;2.20;;;2.10;;
16689;SDS011;8458;52.220;9.884;2024-02-26T03:02:48;2.33;;;2.20;;
16689;SDS011;8458;52.220;9.884;2024-02-26T03:05:15;2.57;;;2.43;;
16689;SDS011;8458;52.220;9.884;2024-02-26T03:07:41;2.47;;;2.23;;
16689;SDS011;8458;52.220;9.884;2024-02-26T03:10:08;2.53;;;2.17;;
16689;SDS011;8458;52.220;9.884;2024-02-26T03:12:36;2.33;;;2.13;;
16689;SDS011;8458;52.220;9.884;2024-02-26T03:15:03;2.40;;;2.20;;
16689;SDS011;8458;52.220;9.884;2024-02-26T03:17:29;2.70;;;2.50;;
16689;SDS011;8458;52.220;9.884;2024-02-26T03:19:56;2.57;;;2.30;;
16689;SDS011;8458;52.220;9.884;2024-02-26T03:22:22;2.13;;;2.03;;
16689;SDS011;8458;52.220;9.884;2024-02-26T03:24:49;2.77;;;2.57;;
16689;SDS011;8458;52.220;9.884;2024-02-26T03:27:15;2.23;;;2.13;;
16689;SDS011;8458;52.220;9.884;2024-02-26T03:29:43;2.57;;;2.37;;
16689;SDS011;8458;52.220;9.884;2024-02-26T03:32:09;2.23;;;2.13;;
16689;SDS011;8458;52.220;9.884;2024-02-26T03:34:36;2.53;;;2.10;;
16689;SDS011;8458;52.220;9.884;2024-02-26T03:37:04;2.47;;;2.27;;
16689;SDS011;8458;52.220;9.884;2024-02-26T03:39:30;1.93;;;1.80;;
16689;SDS011;8458;52.220;9.884;2024-02-26T03:41:57;2.00;;;1.90;;
16689;SDS011;8458;52.220;9.884;2024-02-26T03:44:23;2.17;;;1.97;;
16689;SDS011;8458;52.220;9.884;2024-02-26T03:46:51;2.17;;;2.07;;
16689;SDS011;8458;52.220;9.884;2024-02-26T03:49:17;2.57;;;2.10;;
16689;SDS011;8458;52.220;9.884;2024-02-26T03:51:44;1.73;;;1.63;;
16689;SDS011;8458;52.220;9.884;2024-02-26T03:54:10;1.73;;;1.63;;
16689;SDS011;8458;52.220;9.884;2024-02-26T03:56:37;2.17;;;2.07;;
16689;SDS011;8458;52.220;9.884;2024-02-26T03:59:03;1.87;;;1.77;;
16689;SDS011;8458;52.220;9.884;2024-02-26T04:01:31;1.60;;;1.50;;
16689;SDS011;8458;52.220;9.884;2024-02-26T04:03:59;1.70;;;1.60;;
16689;SDS011;8458;52.220;9.884;2024-02-26T04:06:25;1.70;;;1.60;;
16689;SDS011;8458;52.220;9.884;2024-02-26T04:08:52;1.80;;;1.70;;
16689;SDS011;8458;52.220;9.884;2024-02-26T04:11:19;2.00;;;1.90;;
16689;SDS011;8458;52.220;9.884;2024-02-26T04:13:45;2.47;;;1.47;;
16689;SDS011;8458;52.220;9.884;2024-02-26T04:16:14;1.70;;;1.60;;
16689;SDS011;8458;52.220;9.884;2024-02-26T04:18:41;1.93;;;1.83;;
16689;SDS011;8458;52.220;9.884;2024-02-26T04:21:09;1.60;;;1.50;;
16689;SDS011;8458;52.220;9.884;2024-02-26T04:23:35;1.60;;;1.50;;
16689;SDS011;8458;52.220;9.884;2024-02-26T04:26:02;1.60;;;1.50;;
16689;SDS011;8458;52.220;9.884;2024-02-26T04:28:29;1.70;;;1.60;;
16689;SDS011;8458;52.220;9.884;2024-02-26T04:30:55;1.57;;;1.47;;
16689;SDS011;8458;52.220;9.884;2024-02-26T04:33:22;1.60;;;1.50;;
16689;SDS011;8458;52.220;9.884;2024-02-26T04:35:48;1.50;;;1.40;;
16689;SDS011;8458;52.220;9.884;2024-02-26T04:38:16;1.80;;;1.57;;
16689;SDS011;8458;52.220;9.884;2024-02-26T04:40:42;1.77;;;1.67;;
16689;SDS011;8458;52.220;9.884;2024-02-26T04:43:09;2.00;;;1.90;;
16689;SDS011;8458;52.220;9.884;2024-02-26T04:45:35;2.00;;;1.90;;
16689;SDS011;8458;52.220;9.884;2024-02-26T04:48:02;1.80;;;1.47;;
16689;SDS011;8458;52.220;9.884;2024-02-26T04:50:28;1.70;;;1.60;;
16689;SDS011;8458;52.220;9.884;2024-02-26T04:52:55;1.70;;;1.60;;
16689;SDS011;8458;52.220;9.884;2024-02-26T04:55:22;1.80;;;1.70;;
16689;SDS011;8458;52.220;9.884;2024-02-26T04:57:49;1.97;;;1.87;;
16689;SDS011;8458;52.220;9.884;2024-02-26T05:00:16;2.20;;;1.60;;
16689;SDS011;8458;52.220;9.884;2024-02-26T05:02:42;1.80;;;1.70;;
16689;SDS011;8458;52.220;9.884;2024-02-26T05:05:09;1.80;;;1.70;;
16689;SDS011;8458;52.220;9.884;2024-02-26T05:07:39;3.30;;;2.10;;
16689;SDS011;8458;52.220;9.884;2024-02-26T05:10:07;2.20;;;2.10;;
16689;SDS011;8458;52.220;9.884;2024-02-26T05:12:35;2.13;;;2.00;;
16689;SDS011;8458;52.220;9.884;2024-02-26T05:15:01;2.63;;;1.97;;
16689;SDS011;8458;52.220;9.884;2024-02-26T05:17:28;2.07;;;1.90;;
16689;SDS011;8458;52.220;9.884;2024-02-26T05:19:54;2.10;;;1.90;;
16689;SDS011;8458;52.220;9.884;2024-02-26T05:22:21;2.10;;;2.00;;
16689;SDS011;8458;52.220;9.884;2024-02-26T05:24:47;2.53;;;2.03;;
16689;SDS011;8458;52.220;9.884;2024-02-26T05:27:14;2.20;;;2.00;;
16689;SDS011;8458;52.220;9.884;2024-02-26T05:29:41;2.00;;;1.87;;
16689;SDS011;8458;52.220;9.884;2024-02-26T05:32:08;2.13;;;1.93;;
16689;SDS011;8458;52.220;9.884;2024-02-26T05:34:34;1.90;;;1.73;;
16689;SDS011;8458;52.220;9.884;2024-02-26T05:37:01;2.00;;;1.90;;
16689;SDS011;8458;52.220;9.884;2024-02-26T05:39:27;2.47;;;2.30;;
16689;SDS011;8458;52.220;9.884;2024-02-26T05:41:53;2.40;;;2.20;;
16689;SDS011;8458;52.220;9.884;2024-02-26T05:44:22;2.77;;;2.30;;
16689;SDS011;8458;52.220;9.884;2024-02-26T05:46:50;3.53;;;2.70;;
16689;SDS011;8458;52.220;9.884;2024-02-26T05:49:16;2.57;;;2.37;;
16689;SDS011;8458;52.220;9.884;2024-02-26T05:51:43;2.90;;;2.33;;
16689;SDS011;8458;52.220;9.884;2024-02-26T05:54:09;3.87;;;2.60;;
16689;SDS011;8458;52.220;9.884;2024-02-26T05:56:35;3.73;;;2.50;;
16689;SDS011;8458;52.220;9.884;2024-02-26T05:59:02;2.60;;;2.40;;
16689;SDS011;8458;52.220;9.884;2024-02-26T06:01:28;3.50;;;3.20;;
16689;SDS011;8458;52.220;9.884;2024-02-26T06:03:56;2.90;;;2.70;;
16689;SDS011;8458;52.220;9.884;2024-02-26T06:06:23;3.93;;;2.97;;
16689;SDS011;8458;52.220;9.884;2024-02-26T06:08:49;3.93;;;2.80;;
16689;SDS011;8458;52.220;9.884;2024-02-26T06:11:15;2.93;;;2.73;;
16689;SDS011;8458;52.220;9.884;2024-02-26T06:13:42;3.30;;;2.77;;
16689;SDS011;8458;52.220;9.884;2024-02-26T06:16:08;3.10;;;2.90;;
16689;SDS011;8458;52.220;9.884;2024-02-26T06:18:35;3.30;;;2.87;;
16689;SDS011;8458;52.220;9.884;2024-02-26T06:21:03;2.77;;;2.57;;
16689;SDS011;8458;52.220;9.884;2024-02-26T06:23:29;3.40;;;3.10;;
16689;SDS011;8458;52.220;9.884;2024-02-26T06:25:56;3.23;;;2.93;;
16689;SDS011;8458;52.220;9.884;2024-02-26T06:28:22;3.30;;;2.80;;
16689;SDS011;8458;52.220;9.884;2024-02-26T06:30:49;3.73;;;3.33;;
16689;SDS011;8458;52.220;9.884;2024-02-26T06:33:17;3.50;;;3.20;;
16689;SDS011;8458;52.220;9.884;2024-02-26T06:35:43;3.70;;;3.40;;
16689;SDS011;8458;52.220;9.884;2024-02-26T06:38:11;3.17;;;2.87;;
16689;SDS011;8458;52.220;9.884;2024-02-26T06:40:38;2.73;;;2.53;;
16689;SDS011;8458;52.220;9.884;2024-02-26T06:43:05;3.00;;;2.80;;
16689;SDS011;8458;52.220;9.884;2024-02-26T06:45:31;3.03;;;2.73;;
16689;SDS011;8458;52.220;9.884;2024-02-26T06:47:58;3.30;;;3.00;;
16689;SDS011;8458;52.220;9.884;2024-02-26T06:50:24;3.33;;;2.93;;
16689;SDS011;8458;52.220;9.884;2024-02-26T06:52:51;4.87;;;2.97;;
16689;SDS011;8458;52.220;9.884;2024-02-26T06:55:19;3.63;;;3.33;;
16689;SDS011;8458;52.220;9.884;2024-02-26T06:57:45;3.53;;;3.23;;
16689;SDS011;8458;52.220;9.884;2024-02-26T07:00:12;4.33;;;2.90;;
16689;SDS011;8458;52.220;9.884;2024-02-26T07:02:41;3.13;;;2.83;;
16689;SDS011;8458;52.220;9.884;2024-02-26T07:05:08;3.13;;;2.83;;
16689;SDS011;8458;52.220;9.884;2024-02-26T07:07:35;3.67;;;3.07;;
16689;SDS011;8458;52.220;9.884;2024-02-26T07:10:01;4.07;;;2.87;;
16689;SDS011;8458;52.220;9.884;2024-02-26T07:12:32;7.47;;;3.90;;
16689;SDS011;8458;52.220;9.884;2024-02-26T07:14:58;7.27;;;3.77;;
16689;SDS011;8458;52.220;9.884;2024-02-26T07:17:25;6.40;;;3.10;;
16689;SDS011;8458;52.220;9.884;2024-02-26T07:19:52;7.10;;;3.53;;
16689;SDS011;8458;52.220;9.884;2024-02-26T07:22:18;7.50;;;4.27;;
16689;SDS011;8458;52.220;9.884;2024-02-26T07:24:44;6.77;;;3.47;;
16689;SDS011;8458;52.220;9.884;2024-02-26T07:27:11;3.40;;;3.10;;
16689;SDS011;8458;52.220;9.884;2024-02-26T07:29:39;7.33;;;3.63;;
16689;SDS011;8458;52.220;9.884;2024-02-26T07:32:05;3.53;;;3.10;;
16689;SDS011;8458;52.220;9.884;2024-02-26T07:34:32;4.23;;;3.43;;
16689;SDS011;8458;52.220;9.884;2024-02-26T07:36:58;7.07;;;4.00;;
16689;SDS011;8458;52.220;9.884;2024-02-26T07:39:25;3.47;;;3.07;;
16689;SDS011;8458;52.220;9.884;2024-02-26T07:41:51;3.83;;;3.07;;
16689;SDS011;8458;52.220;9.884;2024-02-26T07:44:18;3.00;;;2.80;;
16689;SDS011;8458;52.220;9.884;2024-02-26T07:46:46;3.23;;;3.00;;
16689;SDS011;8458;52.220;9.884;2024-02-26T07:49:11;3.13;;;2.83;;
16689;SDS011;8458;52.220;9.884;2024-02-26T07:51:38;2.90;;;2.60;;
16689;SDS011;8458;52.220;9.884;2024-02-26T07:54:04;3.00;;;2.80;;
16689;SDS011;8458;52.220;9.884;2024-02-26T07:56:31;2.87;;;2.53;;
16689;SDS011;8458;52.220;9.884;2024-02-26T07:58:57;3.07;;;2.87;;
16689;SDS011;8458;52.220;9.884;2024-02-26T08:01:24;3.47;;;2.90;;
16689;SDS011;8458;52.220;9.884;2024-02-26T08:03:52;2.90;;;2.70;;
16689;SDS011;8458;52.220;9.884;2024-02-26T08:06:19;5.10;;;3.43;;
16689;SDS011;8458;52.220;9.884;2024-02-26T08:08:45;4.50;;;2.50;;
16689;SDS011;8458;52.220;9.884;2024-02-26T08:11:13;5.03;;;2.97;;
16689;SDS011;8458;52.220;9.884;2024-02-26T08:13:40;3.43;;;2.90;;
16689;SDS011;8458;52.220;9.884;2024-02-26T08:16:07;2.43;;;2.23;;
16689;SDS011;8458;52.220;9.884;2024-02-26T08:18:34;2.93;;;2.73;;
16689;SDS011;8458;52.220;9.884;2024-02-26T08:21:02;3.87;;;3.23;;
16689;SDS011;8458;52.220;9.884;2024-02-26T08:23:28;3.90;;;3.50;;
16689;SDS011;8458;52.220;9.884;2024-02-26T08:25:56;6.73;;;4.87;;
16689;SDS011;8458;52.220;9.884;2024-02-26T08:28:22;26.47;;;18.87;;
16689;SDS011;8458;52.220;9.884;2024-02-26T08:30:49;41.03;;;27.63;;
16689;SDS011;8458;52.220;9.884;2024-02-26T08:33:16;13.70;;;12.80;;
16689;SDS011;8458;52.220;9.884;2024-02-26T08:35:42;11.77;;;11.07;;
16689;SDS011;8458;52.220;9.884;2024-02-26T08:38:10;5.20;;;4.80;;
16689;SDS011;8458;52.220;9.884;2024-02-26T08:40:37;4.33;;;4.10;;
16689;SDS011;8458;52.220;9.884;2024-02-26T08:43:04;4.63;;;4.33;;
16689;SDS011;8458;52.220;9.884;2024-02-26T08:45:30;3.63;;;3.40;;
16689;SDS011;8458;52.220;9.884;2024-02-26T08:47:57;5.07;;;4.67;;
16689;SDS011;8458;52.220;9.884;2024-02-26T08:50:24;7.10;;;6.60;;
16689;SDS011;8458;52.220;9.884;2024-02-26T08:52:51;10.77;;;10.17;;
16689;SDS011;8458;52.220;9.884;2024-02-26T08:55:19;30.37;;;26.37;;
16689;SDS011;8458;52.220;9.884;2024-02-26T08:57:46;8.40;;;7.73;;
16689;SDS011;8458;52.220;9.884;2024-02-26T09:00:13;5.83;;;5.33;;
16689;SDS011;8458;52.220;9.884;2024-02-26T09:02:42;4.57;;;4.17;;
16689;SDS011;8458;52.220;9.884;2024-02-26T09:05:09;4.70;;;4.30;;
16689;SDS011;8458;52.220;9.884;2024-02-26T09:07:36;4.40;;;4.10;;
16689;SDS011;8458;52.220;9.884;2024-02-26T09:10:02;4.67;;;3.97;;
16689;SDS011;8458;52.220;9.884;2024-02-26T09:12:31;3.83;;;3.53;;
16689;SDS011;8458;52.220;9.884;2024-02-26T09:14:57;5.00;;;4.53;;
16689;SDS011;8458;52.220;9.884;2024-02-26T09:17:24;4.47;;;4.13;;
16689;SDS011;8458;52.220;9.884;2024-02-26T09:19:50;6.80;;;5.17;;
16689;SDS011;8458;52.220;9.884;2024-02-26T09:22:17;5.90;;;5.30;;
16689;SDS011;8458;52.220;9.884;2024-02-26T09:24:43;7.63;;;7.00;;
16689;SDS011;8458;52.220;9.884;2024-02-26T09:27:10;12.07;;;7.97;;
16689;SDS011;8458;52.220;9.884;2024-02-26T09:29:37;4.30;;;3.90;;
16689;SDS011;8458;52.220;9.884;2024-02-26T09:32:04;4.40;;;4.10;;
16689;SDS011;8458;52.220;9.884;2024-02-26T09:34:31;7.50;;;5.23;;
16689;SDS011;8458;52.220;9.884;2024-02-26T09:36:58;4.50;;;4.10;;
16689;SDS011;8458;52.220;9.884;2024-02-26T09:39:25;4.70;;;4.30;;
16689;SDS011;8458;52.220;9.884;2024-02-26T09:41:52;4.87;;;4.47;;
16689;SDS011;8458;52.220;9.884;2024-02-26T09:44:19;3.67;;;3.37;;
16689;SDS011;8458;52.220;9.884;2024-02-26T09:46:48;3.53;;;3.23;;
16689;SDS011;8458;52.220;9.884;2024-02-26T09:49:15;5.70;;;3.90;;
16689;SDS011;8458;52.220;9.884;2024-02-26T09:51:42;4.90;;;3.70;;
16689;SDS011;8458;52.220;9.884;2024-02-26T09:54:09;4.07;;;3.63;;
16689;SDS011;8458;52.220;9.884;2024-02-26T09:56:36;12.87;;;4.07;;
16689;SDS011;8458;52.220;9.884;2024-02-26T09:59:05;7.47;;;4.77;;
16689;SDS011;8458;52.220;9.884;2024-02-26T10:01:36;3.50;;;3.10;;
16689;SDS011;8458;52.220;9.884;2024-02-26T10:04:06;5.17;;;2.57;;
16689;SDS011;8458;52.220;9.884;2024-02-26T10:06:36;3.67;;;2.70;;
16689;SDS011;8458;52.220;9.884;2024-02-26T10:09:03;6.23;;;3.00;;
16689;SDS011;8458;52.220;9.884;2024-02-26T10:11:32;3.00;;;2.47;;
16689;SDS011;8458;52.220;9.884;2024-02-26T10:13:58;3.73;;;2.40;;
16689;SDS011;8458;52.220;9.884;2024-02-26T10:16:25;2.83;;;2.40;;
16689;SDS011;8458;52.220;9.884;2024-02-26T10:18:52;3.27;;;2.80;;
16689;SDS011;8458;52.220;9.884;2024-02-26T10:21:21;3.10;;;2.27;;
16689;SDS011;8458;52.220;9.884;2024-02-26T10:23:48;3.37;;;2.83;;
16689;SDS011;8458;52.220;9.884;2024-02-26T10:26:16;3.27;;;2.67;;
16689;SDS011;8458;52.220;9.884;2024-02-26T10:28:43;2.60;;;2.27;;
16689;SDS011;8458;52.220;9.884;2024-02-26T10:31:11;4.67;;;2.90;;
16689;SDS011;8458;52.220;9.884;2024-02-26T10:33:40;5.50;;;2.43;;
16689;SDS011;8458;52.220;9.884;2024-02-26T10:36:07;10.63;;;4.47;;
16689;SDS011;8458;52.220;9.884;2024-02-26T10:38:35;7.40;;;3.93;;
16689;SDS011;8458;52.220;9.884;2024-02-26T10:41:03;2.43;;;2.10;;
16689;SDS011;8458;52.220;9.884;2024-02-26T10:43:30;3.23;;;2.93;;
16689;SDS011;8458;52.220;9.884;2024-02-26T10:45:56;3.03;;;2.20;;
16689;SDS011;8458;52.220;9.884;2024-02-26T10:48:23;3.57;;;3.30;;
16689;SDS011;8458;52.220;9.884;2024-02-26T10:50:50;2.67;;;1.90;;
16689;SDS011;8458;52.220;9.884;2024-02-26T10:53:19;1.97;;;1.77;;
16689;SDS011;8458;52.220;9.884;2024-02-26T10:55:48;2.03;;;1.77;;
16689;SDS011;8458;52.220;9.884;2024-02-26T10:58:18;1.77;;;1.60;;
16689;SDS011;8458;52.220;9.884;2024-02-26T11:00:45;1.67;;;1.57;;
16689;SDS011;8458;52.220;9.884;2024-02-26T11:03:13;1.63;;;1.40;;
16689;SDS011;8458;52.220;9.884;2024-02-26T11:05:42;1.97;;;1.73;;
16689;SDS011;8458;52.220;9.884;2024-02-26T11:08:09;13.47;;;1.90;;
16689;SDS011;8458;52.220;9.884;2024-02-26T11:10:37;1.40;;;1.30;;
16689;SDS011;8458;52.220;9.884;2024-02-26T11:13:07;2.13;;;1.70;;
16689;SDS011;8458;52.220;9.884;2024-02-26T11:15:37;2.23;;;1.50;;
16689;SDS011;8458;52.220;9.884;2024-02-26T11:18:04;4.17;;;1.40;;
16689;SDS011;8458;52.220;9.884;2024-02-26T11:20:32;2.03;;;1.80;;
16689;SDS011;8458;52.220;9.884;2024-02-26T11:23:00;2.43;;;1.97;;
16689;SDS011;8458;52.220;9.884;2024-02-26T11:25:27;1.80;;;1.50;;
16689;SDS011;8458;52.220;9.884;2024-02-26T11:27:54;1.83;;;1.30;;
16689;SDS011;8458;52.220;9.884;2024-02-26T11:30:25;3.80;;;1.90;;
16689;SDS011;8458;52.220;9.884;2024-02-26T11:32:55;2.97;;;1.80;;
16689;SDS011;8458;52.220;9.884;2024-02-26T11:35:22;2.27;;;1.63;;
16689;SDS011;8458;52.220;9.884;2024-02-26T11:37:53;4.03;;;3.60;;
16689;SDS011;8458;52.220;9.884;2024-02-26T11:40:21;2.97;;;2.10;;
16689;SDS011;8458;52.220;9.884;2024-02-26T11:42:48;2.00;;;1.90;;
16689;SDS011;8458;52.220;9.884;2024-02-26T11:48:15;11.47;;;2.57;;
16689;SDS011;8458;52.220;9.884;2024-02-26T11:50:45;8.40;;;2.50;;
16689;SDS011;8458;52.220;9.884;2024-02-26T11:53:19;7.83;;;3.33;;
16689;SDS011;8458;52.220;9.884;2024-02-26T11:55:46;10.10;;;3.37;;
16689;SDS011;8458;52.220;9.884;2024-02-26T11:58:13;5.60;;;2.83;;
16689;SDS011;8458;52.220;9.884;2024-02-26T12:00:39;9.97;;;2.93;;
16689;SDS011;8458;52.220;9.884;2024-02-26T12:03:07;2.97;;;2.33;;
16689;SDS011;8458;52.220;9.884;2024-02-26T12:05:37;3.73;;;2.50;;
16689;SDS011;8458;52.220;9.884;2024-02-26T12:08:04;3.03;;;2.67;;
16689;SDS011;8458;52.220;9.884;2024-02-26T12:10:33;2.97;;;2.37;;
16689;SDS011;8458;52.220;9.884;2024-02-26T12:13:04;3.33;;;2.43;;
16689;SDS011;8458;52.220;9.884;2024-02-26T12:15:33;7.70;;;2.93;;
16689;SDS011;8458;52.220;9.884;2024-02-26T12:18:03;7.30;;;3.20;;
16689;SDS011;8458;52.220;9.884;2024-02-26T12:20:32;5.57;;;3.67;;
16689;SDS011;8458;52.220;9.884;2024-02-26T12:23:00;5.33;;;3.23;;
16689;SDS011;8458;52.220;9.884;2024-02-26T12:25:28;4.97;;;3.60;;
16689;SDS011;8458;52.220;9.884;2024-02-26T12:27:56;5.90;;;3.33;;
16689;SDS011;8458;52.220;9.884;2024-02-26T12:30:23;6.67;;;3.00;;
16689;SDS011;8458;52.220;9.884;2024-02-26T12:32:52;4.30;;;3.00;;
16689;SDS011;8458;52.220;9.884;2024-02-26T12:35:22;3.07;;;2.83;;
16689;SDS011;8458;52.220;9.884;2024-02-26T12:37:50;4.77;;;3.73;;
16689;SDS011;8458;52.220;9.884;2024-02-26T12:40:17;4.20;;;3.80;;
16689;SDS011;8458;52.220;9.884;2024-02-26T12:42:44;3.97;;;3.57;;
16689;SDS011;8458;52.220;9.884;2024-02-26T12:45:12;4.07;;;3.00;;
16689;SDS011;8458;52.220;9.884;2024-02-26T12:47:41;4.23;;;3.83;;
16689;SDS011;8458;52.220;9.884;2024-02-26T12:50:08;4.70;;;4.13;;
16689;SDS011;8458;52.220;9.884;2024-02-26T12:52:36;4.67;;;4.10;;
16689;SDS011;8458;52.220;9.884;2024-02-26T12:55:06;3.77;;;3.47;;
16689;SDS011;8458;52.220;9.884;2024-02-26T12:57:34;4.30;;;3.90;;
16689;SDS011;8458;52.220;9.884;2024-02-26T13:00:03;3.90;;;3.60;;
16689;SDS011;8458;52.220;9.884;2024-02-26T13:02:32;3.70;;;3.40;;
16689;SDS011;8458;52.220;9.884;2024-02-26T13:04:59;6.70;;;3.90;;
16689;SDS011;8458;52.220;9.884;2024-02-26T13:07:26;4.10;;;3.80;;
16689;SDS011;8458;52.220;9.884;2024-02-26T13:09:53;3.73;;;3.47;;
16689;SDS011;8458;52.220;9.884;2024-02-26T13:12:21;4.20;;;3.57;;
16689;SDS011;8458;52.220;9.884;2024-02-26T13:14:48;8.47;;;4.30;;
16689;SDS011;8458;52.220;9.884;2024-02-26T13:17:25;24.23;;;6.10;;
16689;SDS011;8458;52.220;9.884;2024-02-26T13:19:53;5.00;;;4.13;;
16689;SDS011;8458;52.220;9.884;2024-02-26T13:22:20;6.27;;;4.83;;
16689;SDS011;8458;52.220;9.884;2024-02-26T13:24:53;3.80;;;3.50;;
16689;SDS011;8458;52.220;9.884;2024-02-26T13:27:22;3.87;;;3.47;;
16689;SDS011;8458;52.220;9.884;2024-02-26T13:29:49;3.67;;;3.47;;
16689;SDS011;8458;52.220;9.884;2024-02-26T13:32:27;3.93;;;3.63;;
16689;SDS011;8458;52.220;9.884;2024-02-26T13:35:03;3.77;;;3.47;;
16689;SDS011;8458;52.220;9.884;2024-02-26T13:37:31;3.70;;;3.50;;
16689;SDS011;8458;52.220;9.884;2024-02-26T13:39:57;4.17;;;3.83;;
16689;SDS011;8458;52.220;9.884;2024-02-26T13:42:25;4.87;;;4.10;;
16689;SDS011;8458;52.220;9.884;2024-02-26T13:44:51;4.33;;;4.03;;
16689;SDS011;8458;52.220;9.884;2024-02-26T13:47:18;3.47;;;3.20;;
16689;SDS011;8458;52.220;9.884;2024-02-26T13:49:44;4.00;;;3.70;;
16689;SDS011;8458;52.220;9.884;2024-02-26T13:52:11;3.90;;;3.60;;
16689;SDS011;8458;52.220;9.884;2024-02-26T13:54:37;4.57;;;4.27;;
16689;SDS011;8458;52.220;9.884;2024-02-26T13:57:05;4.17;;;3.87;;
16689;SDS011;8458;52.220;9.884;2024-02-26T13:59:33;6.47;;;5.93;;
16689;SDS011;8458;52.220;9.884;2024-02-26T14:01:59;5.97;;;5.67;;
16689;SDS011;8458;52.220;9.884;2024-02-26T14:04:26;4.10;;;3.80;;
16689;SDS011;8458;52.220;9.884;2024-02-26T14:06:52;5.80;;;5.20;;
16689;SDS011;8458;52.220;9.884;2024-02-26T14:09:19;5.07;;;4.63;;
16689;SDS011;8458;52.220;9.884;2024-02-26T14:11:45;5.70;;;5.03;;
16689;SDS011;8458;52.220;9.884;2024-02-26T14:14:12;5.70;;;5.30;;
16689;SDS011;8458;52.220;9.884;2024-02-26T14:16:39;5.60;;;5.10;;
16689;SDS011;8458;52.220;9.884;2024-02-26T14:19:06;6.37;;;6.07;;
16689;SDS011;8458;52.220;9.884;2024-02-26T14:21:33;5.13;;;4.73;;
16689;SDS011;8458;52.220;9.884;2024-02-26T14:24:01;6.87;;;4.20;;
16689;SDS011;8458;52.220;9.884;2024-02-26T14:26:28;4.70;;;4.00;;
16689;SDS011;8458;52.220;9.884;2024-02-26T14:28:55;8.93;;;4.40;;
16689;SDS011;8458;52.220;9.884;2024-02-26T14:31:22;5.93;;;4.37;;
16689;SDS011;8458;52.220;9.884;2024-02-26T14:33:51;4.27;;;3.97;;
16689;SDS011;8458;52.220;9.884;2024-02-26T14:36:18;4.47;;;4.07;;
16689;SDS011;8458;52.220;9.884;2024-02-26T14:38:45;4.10;;;3.80;;
16689;SDS011;8458;52.220;9.884;2024-02-26T14:41:12;4.43;;;3.93;;
16689;SDS011;8458;52.220;9.884;2024-02-26T14:43:38;15.57;;;5.43;;
16689;SDS011;8458;52.220;9.884;2024-02-26T14:46:05;9.53;;;5.33;;
16689;SDS011;8458;52.220;9.884;2024-02-26T14:48:31;11.03;;;5.30;;
16689;SDS011;8458;52.220;9.884;2024-02-26T14:51:00;5.00;;;4.60;;
16689;SDS011;8458;52.220;9.884;2024-02-26T14:53:26;6.20;;;4.40;;
16689;SDS011;8458;52.220;9.884;2024-02-26T14:55:53;17.40;;;6.17;;
16689;SDS011;8458;52.220;9.884;2024-02-26T14:58:19;5.20;;;4.70;;
16689;SDS011;8458;52.220;9.884;2024-02-26T15:00:46;4.50;;;4.20;;
16689;SDS011;8458;52.220;9.884;2024-02-26T15:03:12;5.10;;;4.70;;